^^
Saratoga-Weather Station Historical Data
Daily Summary for May 13, 2021 Units:  Metric    English   Both
Daily Weekly Monthly Yearly Custom
  High: Low: Average:
Temperature: 15.7 °C 6.6 °C 10.9 °C
Dew Point: 9.8 °C 5 °C 7.2 °C
Humidity: 93% 54% 79%
Wind Speed: 16.3km/h 0km/h 2.5km/h
Wind Gust: 20.9km/h - -
Wind- - West
Pressure: 1008.8 hPa 1006.4 hPa -
Precipitation: 0.5 mm    
Historical Graphs
 
 
Tabular Data for May 13, 2021
Time Temperature Dew Point Pressure Wind Wind Speed Wind Gust Humidity Rainfall Rate (Hourly) solar
00:02 8.9 °C 5.8 °C 1008.8 hPa Calm     81% 0.0 mm 0 W/m2
00:07 8.8 °C 5.7 °C 1008.8 hPa Calm   1.6 km/h 81% 0.0 mm 0 W/m2
00:12 8.8 °C 5.7 °C 1008.8 hPa Calm   1.6 km/h 81% 0.0 mm 0 W/m2
00:17 8.7 °C 5.6 °C 1008.8 hPa Calm   1.6 km/h 81% 0.0 mm 0 W/m2
00:22 8.6 °C 5.7 °C 1008.8 hPa Calm     82% 0.0 mm 0 W/m2
00:27 8.4 °C 5.5 °C 1008.8 hPa Calm   1.6 km/h 82% 0.0 mm 0 W/m2
00:32 8.3 °C 5.4 °C 1008.8 hPa Calm     82% 0.0 mm 0 W/m2
00:37 8.3 °C 5.6 °C 1008.5 hPa Calm     83% 0.0 mm 0 W/m2
00:42 8.2 °C 5.5 °C 1008.8 hPa Calm   1.6 km/h 83% 0.0 mm 0 W/m2
00:47 8.1 °C 5.4 °C 1008.5 hPa Calm     83% 0.0 mm 0 W/m2
00:52 8.1 °C 5.4 °C 1008.5 hPa Calm   1.6 km/h 83% 0.0 mm 0 W/m2
00:57 7.9 °C 5.2 °C 1008.5 hPa Calm     83% 0.0 mm 0 W/m2
01:02 7.9 °C 5.4 °C 1008.5 hPa Calm     84% 0.0 mm 0 W/m2
01:07 7.9 °C 5.4 °C 1008.5 hPa Calm     84% 0.0 mm 0 W/m2
01:12 7.8 °C 5.3 °C 1008.5 hPa Calm     84% 0.0 mm 0 W/m2
01:17 7.8 °C 5.4 °C 1008.5 hPa Calm     85% 0.0 mm 0 W/m2
01:22 7.7 °C 5.3 °C 1008.5 hPa Calm     85% 0.0 mm 0 W/m2
01:27 7.7 °C 5.3 °C 1008.5 hPa Calm     85% 0.0 mm 0 W/m2
01:32 7.6 °C 5.2 °C 1008.5 hPa Calm     85% 0.0 mm 0 W/m2
01:37 7.5 °C 5.3 °C 1008.5 hPa Calm     86% 0.0 mm 0 W/m2
01:42 7.5 °C 5.3 °C 1008.5 hPa Calm     86% 0.0 mm 0 W/m2
01:47 7.4 °C 5.2 °C 1008.5 hPa Calm     86% 0.0 mm 0 W/m2
01:52 7.4 °C 5.2 °C 1008.5 hPa Calm     86% 0.0 mm 0 W/m2
01:57 7.4 °C 5.4 °C 1008.5 hPa Calm     87% 0.0 mm 0 W/m2
02:02 7.3 °C 5.1 °C 1008.5 hPa Calm     86% 0.0 mm 0 W/m2
02:07 7.3 °C 5.1 °C 1008.5 hPa Calm     86% 0.0 mm 0 W/m2
02:12 7.2 °C 5.2 °C 1008.5 hPa Calm     87% 0.0 mm 0 W/m2
02:17 7.2 °C 5.2 °C 1008.5 hPa Calm     87% 0.0 mm 0 W/m2
02:22 7.1 °C 5.1 °C 1008.5 hPa Calm     87% 0.0 mm 0 W/m2
02:27 7 °C 5 °C 1008.5 hPa Calm     87% 0.0 mm 0 W/m2
02:32 7 °C 5.1 °C 1008.5 hPa Calm     88% 0.0 mm 0 W/m2
02:37 6.9 °C 5.1 °C 1008.5 hPa Calm     88% 0.0 mm 0 W/m2
02:42 6.9 °C 5.2 °C 1008.5 hPa Calm     89% 0.0 mm 0 W/m2
02:47 6.9 °C 5.2 °C 1008.1 hPa Calm     89% 0.0 mm 0 W/m2
02:52 6.8 °C 5.1 °C 1008.1 hPa Calm     89% 0.0 mm 0 W/m2
02:57 6.8 °C 5.1 °C 1008.1 hPa Calm     89% 0.0 mm 0 W/m2
03:02 6.8 °C 5.3 °C 1008.1 hPa Calm     90% 0.0 mm 0 W/m2
03:07 6.8 °C 5.3 °C 1008.1 hPa Calm     90% 0.0 mm 0 W/m2
03:12 6.8 °C 5.3 °C 1008.1 hPa Calm     90% 0.0 mm 0 W/m2
03:17 6.8 °C 5.4 °C 1008.1 hPa Calm     91% 0.0 mm 0 W/m2
03:22 6.7 °C 5.3 °C 1007.8 hPa Calm     91% 0.0 mm 0 W/m2
03:27 6.7 °C 5.3 °C 1007.8 hPa Calm     91% 0.0 mm 0 W/m2
03:32 6.6 °C 5.2 °C 1008.1 hPa Calm     91% 0.0 mm 0 W/m2
03:37 6.6 °C 5.2 °C 1007.8 hPa Calm     91% 0.0 mm 0 W/m2
03:43 6.6 °C 5.4 °C 1007.8 hPa Calm     92% 0.0 mm 0 W/m2
03:48 6.6 °C 5.4 °C 1007.8 hPa Calm     92% 0.0 mm 0 W/m2
03:53 6.6 °C 5.4 °C 1007.8 hPa Calm     92% 0.0 mm 0 W/m2
03:58 6.7 °C 5.5 °C 1007.8 hPa Calm     92% 0.0 mm 0 W/m2
04:03 6.7 °C 5.5 °C 1007.8 hPa Calm     92% 0.0 mm 0 W/m2
04:08 6.6 °C 5.4 °C 1007.8 hPa Calm     92% 0.0 mm 0 W/m2
04:13 6.6 °C 5.4 °C 1007.8 hPa Calm     92% 0.0 mm 0 W/m2
04:18 6.6 °C 5.4 °C 1007.8 hPa Calm     92% 0.0 mm 0 W/m2
04:23 6.6 °C 5.4 °C 1007.5 hPa Calm     92% 0.0 mm 0 W/m2
04:28 6.6 °C 5.4 °C 1007.5 hPa Calm     92% 0.0 mm 0 W/m2
04:33 6.6 °C 5.4 °C 1007.5 hPa Calm     92% 0.0 mm 0 W/m2
04:38 6.6 °C 5.5 °C 1007.5 hPa Calm     93% 0.0 mm 0 W/m2
04:43 6.7 °C 5.6 °C 1007.5 hPa Calm     93% 0.0 mm 0 W/m2
04:48 6.7 °C 5.6 °C 1007.5 hPa Calm     93% 0.0 mm 0 W/m2
04:53 6.8 °C 5.7 °C 1007.5 hPa Calm     93% 0.0 mm 0 W/m2
04:58 6.8 °C 5.7 °C 1007.5 hPa Calm     93% 0.0 mm 0 W/m2
05:03 6.8 °C 5.7 °C 1007.5 hPa Calm     93% 0.0 mm 0 W/m2
05:08 6.8 °C 5.7 °C 1007.5 hPa Calm     93% 0.0 mm 0 W/m2
05:13 6.8 °C 5.7 °C 1007.5 hPa Calm     93% 0.0 mm 0 W/m2
05:18 6.8 °C 5.7 °C 1007.5 hPa Calm     93% 0.0 mm 0 W/m2
05:23 6.8 °C 5.7 °C 1007.5 hPa Calm     93% 0.0 mm 0 W/m2
05:28 6.9 °C 5.8 °C 1007.5 hPa Calm     93% 0.0 mm 0 W/m2
05:33 7 °C 5.9 °C 1007.5 hPa Calm     93% 0.0 mm 0 W/m2
05:38 7.1 °C 6 °C 1007.5 hPa Calm     93% 0.0 mm 0 W/m2
05:43 7.1 °C 6 °C 1007.5 hPa Calm     93% 0.0 mm 0 W/m2
05:48 7.2 °C 6.1 °C 1007.1 hPa Calm     93% 0.0 mm 0 W/m2
05:53 7.2 °C 6 °C 1007.5 hPa Calm     92% 0.0 mm 0 W/m2
05:58 7.2 °C 6 °C 1007.5 hPa Calm     92% 0.0 mm 0 W/m2
06:03 7.3 °C 6.1 °C 1007.5 hPa Calm     92% 0.0 mm 0 W/m2
06:08 7.3 °C 6.1 °C 1007.5 hPa Calm     92% 0.0 mm 7 W/m2
06:13 7.3 °C 6.1 °C 1007.5 hPa West 1.4 km/h 1.6 km/h 92% 0.0 mm 11 W/m2
06:18 7.3 °C 5.9 °C 1007.5 hPa Calm   1.6 km/h 91% 0.0 mm 14 W/m2
06:23 7.3 °C 5.9 °C 1007.5 hPa WNW 3.2 km/h 3.2 km/h 91% 0.0 mm 18 W/m2
06:28 7.3 °C 5.9 °C 1007.5 hPa Calm   3.2 km/h 91% 0.0 mm 19 W/m2
06:33 7.3 °C 5.9 °C 1007.5 hPa Calm     91% 0.0 mm 21 W/m2
06:38 7.3 °C 5.9 °C 1007.5 hPa Calm   3.2 km/h 91% 0.0 mm 26 W/m2
06:43 7.4 °C 6 °C 1007.5 hPa Calm     91% 0.0 mm 28 W/m2
06:48 7.4 °C 6 °C 1007.5 hPa Calm     91% 0.0 mm 32 W/m2
06:53 7.5 °C 6.1 °C 1007.5 hPa Calm     91% 0.0 mm 32 W/m2
06:58 7.6 °C 6.2 °C 1007.5 hPa Calm     91% 0.0 mm 30 W/m2
07:03 7.7 °C 6.3 °C 1007.1 hPa Calm     91% 0.0 mm 28 W/m2
07:08 7.7 °C 6.3 °C 1007.5 hPa WNW 1.4 km/h 1.6 km/h 91% 0.0 mm 33 W/m2
07:13 7.8 °C 6.3 °C 1007.5 hPa Calm   3.2 km/h 90% 0.0 mm 39 W/m2
07:18 7.8 °C 6.3 °C 1007.1 hPa Calm     90% 0.0 mm 39 W/m2
07:23 7.8 °C 6.1 °C 1007.5 hPa Calm   3.2 km/h 89% 0.0 mm 39 W/m2
07:28 7.9 °C 6.2 °C 1007.1 hPa Calm     89% 0.0 mm 40 W/m2
07:33 7.9 °C 6.2 °C 1007.1 hPa Calm     89% 0.0 mm 44 W/m2
07:38 8 °C 6.1 °C 1007.1 hPa Calm     88% 0.0 mm 56 W/m2
07:43 8.1 °C 6.2 °C 1007.1 hPa Calm   1.6 km/h 88% 0.0 mm 70 W/m2
07:48 8.2 °C 6.3 °C 1007.1 hPa Calm     88% 0.0 mm 70 W/m2
07:53 8.2 °C 6.3 °C 1006.8 hPa Calm     88% 0.0 mm 76 W/m2
07:58 8.3 °C 6.3 °C 1006.8 hPa Calm     87% 0.0 mm 79 W/m2
08:03 8.5 °C 6.5 °C 1006.8 hPa Calm   3.2 km/h 87% 0.0 mm 77 W/m2
08:08 8.6 °C 6.6 °C 1006.8 hPa Calm   1.6 km/h 87% 0.0 mm 84 W/m2
08:13 8.7 °C 6.7 °C 1006.8 hPa Calm     87% 0.0 mm 100 W/m2
08:18 8.9 °C 6.9 °C 1006.8 hPa Calm     87% 0.0 mm 114 W/m2
08:23 9.3 °C 7.2 °C 1006.8 hPa Calm     87% 0.0 mm 120 W/m2
08:28 9.8 °C 7.6 °C 1006.8 hPa WNW 1.4 km/h 3.2 km/h 86% 0.0 mm 121 W/m2
08:33 10.4 °C 7.8 °C 1006.8 hPa East 3.2 km/h 4.8 km/h 84% 0.0 mm 127 W/m2
08:38 11.1 °C 8 °C 1006.8 hPa ENE 3.2 km/h 6.4 km/h 81% 0.0 mm 134 W/m2
08:43 11.3 °C 8 °C 1006.8 hPa NE 1.4 km/h 4.8 km/h 80% 0.0 mm 144 W/m2
08:48 11.4 °C 7.9 °C 1006.8 hPa ENE 3.2 km/h 4.8 km/h 79% 0.0 mm 234 W/m2
08:53 11.4 °C 8.1 °C 1006.8 hPa ENE 3.2 km/h 4.8 km/h 80% 0.0 mm 193 W/m2
08:58 11.6 °C 8.3 °C 1006.8 hPa ESE 1.4 km/h 4.8 km/h 80% 0.0 mm 434 W/m2
09:03 11.7 °C 8.4 °C 1006.8 hPa East 3.2 km/h 4.8 km/h 80% 0.0 mm 299 W/m2
09:08 11.9 °C 8.6 °C 1006.8 hPa NE 6.4 km/h 6.4 km/h 80% 0.0 mm 587 W/m2
09:13 12.1 °C 8.8 °C 1006.8 hPa ESE 1.4 km/h 4.8 km/h 80% 0.0 mm 399 W/m2
09:18 12 °C 8.5 °C 1006.8 hPa NE 3.2 km/h 4.8 km/h 79% 0.0 mm 318 W/m2
09:23 12.1 °C 8.8 °C 1006.8 hPa NNE 3.2 km/h 4.8 km/h 80% 0.0 mm 348 W/m2
09:28 12.2 °C 8.9 °C 1007.1 hPa East 3.2 km/h 6.4 km/h 80% 0.0 mm 221 W/m2
09:33 12.3 °C 8.9 °C 1006.8 hPa NE 3.2 km/h 4.8 km/h 80% 0.0 mm 211 W/m2
09:38 12.3 °C 8.9 °C 1007.1 hPa ESE 3.2 km/h 8 km/h 80% 0.0 mm 211 W/m2
09:43 12.3 °C 8.9 °C 1007.1 hPa East 1.4 km/h 3.2 km/h 80% 0.0 mm 223 W/m2
09:48 12.4 °C 9 °C 1007.1 hPa Calm   4.8 km/h 80% 0.0 mm 288 W/m2
09:53 12.7 °C 9.3 °C 1007.1 hPa ENE 3.2 km/h 6.4 km/h 80% 0.0 mm 283 W/m2
09:58 12.9 °C 9.3 °C 1007.1 hPa Calm   3.2 km/h 79% 0.0 mm 199 W/m2
10:03 13 °C 9.3 °C 1007.1 hPa NNW 1.4 km/h 6.4 km/h 78% 0.0 mm 169 W/m2
10:08 13.1 °C 9.2 °C 1007.1 hPa North 1.4 km/h 3.2 km/h 77% 0.0 mm 144 W/m2
10:13 13.2 °C 8.9 °C 1007.1 hPa WSW 4.7 km/h 14.5 km/h 75% 0.0 mm 229 W/m2
10:18 13.2 °C 8.9 °C 1007.1 hPa NW 1.4 km/h 6.4 km/h 75% 0.0 mm 241 W/m2
10:23 13.2 °C 8.9 °C 1007.1 hPa Calm   14.5 km/h 75% 0.0 mm 195 W/m2
10:29 13.2 °C 8.9 °C 1007.1 hPa ENE 1.4 km/h 4.8 km/h 75% 0.0 mm 144 W/m2
10:34 13.2 °C 9.1 °C 1007.1 hPa WNW 7.9 km/h 9.7 km/h 76% 0.0 mm 123 W/m2
10:39 13.1 °C 9.2 °C 1007.1 hPa WNW 4.7 km/h 11.3 km/h 77% 0.0 mm 165 W/m2
10:44 13 °C 9.1 °C 1007.5 hPa NW 4.7 km/h 9.7 km/h 77% 0.0 mm 221 W/m2
10:49 13 °C 9.3 °C 1007.5 hPa WNW 4.7 km/h 6.4 km/h 78% 0.0 mm 192 W/m2
10:54 13 °C 9.3 °C 1007.5 hPa West 3.2 km/h 6.4 km/h 78% 0.0 mm 144 W/m2
10:59 12.9 °C 9.3 °C 1007.5 hPa NW 3.2 km/h 6.4 km/h 79% 0.0 mm 132 W/m2
11:04 12.8 °C 9.2 °C 1007.5 hPa WNW 4.7 km/h 12.9 km/h 79% 0.0 mm 111 W/m2
11:09 12.7 °C 9.2 °C 1007.5 hPa West 1.4 km/h 11.3 km/h 79% 0.0 mm 135 W/m2
11:14 12.7 °C 9.3 °C 1007.5 hPa WNW 4.7 km/h 12.9 km/h 80% 0.0 mm 199 W/m2
11:19 12.7 °C 9.3 °C 1007.5 hPa WNW 3.2 km/h 3.2 km/h 80% 0.0 mm 246 W/m2
11:24 12.8 °C 9.2 °C 1007.5 hPa Calm   16.1 km/h 79% 0.0 mm 301 W/m2
11:29 13 °C 9.4 °C 1007.5 hPa WSW 11.1 km/h 12.9 km/h 79% 0.0 mm 287 W/m2
11:34 13 °C 9.1 °C 1007.5 hPa West 13 km/h 14.5 km/h 77% 0.0 mm 176 W/m2
11:39 12.8 °C 9.1 °C 1007.5 hPa SSE 4.7 km/h 6.4 km/h 78% 0.0 mm 160 W/m2
11:44 12.8 °C 9.1 °C 1007.5 hPa SSE 1.4 km/h 4.8 km/h 78% 0.0 mm 181 W/m2
11:49 12.6 °C 8.7 °C 1007.5 hPa WNW 7.9 km/h 16.1 km/h 77% 0.0 mm 223 W/m2
11:54 12.4 °C 8.5 °C 1007.5 hPa NW 4.7 km/h 16.1 km/h 77% 0.0 mm 264 W/m2
11:59 12.4 °C 8.7 °C 1007.5 hPa West 1.4 km/h 9.7 km/h 78% 0.0 mm 297 W/m2
12:04 12.3 °C 8.6 °C 1007.5 hPa West 9.7 km/h 20.9 km/h 78% 0.0 mm 316 W/m2
12:09 12.2 °C 8.9 °C 1007.5 hPa WSW 6.4 km/h 9.7 km/h 80% 0.0 mm 306 W/m2
12:14 12.2 °C 8.9 °C 1007.5 hPa NW 6.4 km/h 20.9 km/h 80% 0.0 mm 127 W/m2
12:19 11.9 °C 8.7 °C 1007.5 hPa NW 11.1 km/h 14.5 km/h 81% 0.0 mm 97 W/m2
12:24 11.7 °C 8.7 °C 1007.5 hPa WNW 14.3 km/h 14.5 km/h 82% 0.0 mm 102 W/m2
12:29 11.5 °C 8.9 °C 1007.5 hPa WNW 4.7 km/h 11.3 km/h 84% 0.0 mm 114 W/m2
12:34 11.4 °C 9 °C 1007.5 hPa West 4.7 km/h 12.9 km/h 85% 0.0 mm 141 W/m2
12:39 11.2 °C 8.9 °C 1007.5 hPa NW 4.7 km/h 14.5 km/h 86% 0.0 mm 193 W/m2
12:44 11.3 °C 9.4 °C 1007.5 hPa NW 6.4 km/h 6.4 km/h 88% 0.2 mm 271 W/m2
12:49 11.3 °C 9.4 °C 1007.5 hPa NW 6.4 km/h 12.9 km/h 88% 0.2 mm 279 W/m2
12:54 11.4 °C 9.7 °C 1007.5 hPa NW 4.7 km/h 8 km/h 89% 0.2 mm 244 W/m2
12:59 11.6 °C 9.8 °C 1007.5 hPa NW 3.2 km/h 12.9 km/h 89% 0.2 mm 171 W/m2
13:04 11.6 °C 9.8 °C 1007.5 hPa WNW 11.1 km/h 11.3 km/h 89% 0.2 mm 174 W/m2
13:09 11.3 °C 9.4 °C 1007.5 hPa West 9.7 km/h 16.1 km/h 88% 0.2 mm 188 W/m2
13:14 11.2 °C 9.3 °C 1007.5 hPa WSW 7.9 km/h 11.3 km/h 88% 0.2 mm 255 W/m2
13:19 11 °C 9.1 °C 1007.5 hPa West 9.7 km/h 17.7 km/h 88% 0.2 mm 253 W/m2
13:24 11 °C 9.3 °C 1007.5 hPa West 9.7 km/h 12.9 km/h 89% 0.2 mm 230 W/m2
13:29 11.1 °C 9.4 °C 1007.5 hPa West 11.1 km/h 12.9 km/h 89% 0.2 mm 193 W/m2
13:34 11 °C 9.3 °C 1007.5 hPa WNW 1.4 km/h 12.9 km/h 89% 0.2 mm 183 W/m2
13:39 11 °C 9.1 °C 1007.5 hPa West 13 km/h 14.5 km/h 88% 0.2 mm 200 W/m2
13:44 11 °C 8.9 °C 1007.8 hPa NW 3.2 km/h 17.7 km/h 87% 0.0 mm 207 W/m2
13:49 10.9 °C 9 °C 1007.8 hPa WNW 7.9 km/h 16.1 km/h 88% 0.0 mm 225 W/m2
13:54 10.9 °C 9 °C 1007.5 hPa WSW 6.4 km/h 11.3 km/h 88% 0.0 mm 221 W/m2
13:59 11 °C 9.1 °C 1007.8 hPa NW 7.9 km/h 12.9 km/h 88% 0.0 mm 236 W/m2
14:04 11.1 °C 9 °C 1007.8 hPa West 11.1 km/h 12.9 km/h 87% 0.0 mm 234 W/m2
14:09 11.1 °C 9 °C 1007.8 hPa West 4.7 km/h 14.5 km/h 87% 0.0 mm 308 W/m2
14:14 11.3 °C 9.2 °C 1007.5 hPa West 6.4 km/h 11.3 km/h 87% 0.2 mm 424 W/m2
14:19 11.5 °C 9.4 °C 1007.8 hPa NNW 1.4 km/h 14.5 km/h 87% 0.2 mm 392 W/m2
14:24 11.8 °C 9.4 °C 1007.8 hPa NW 7.9 km/h 12.9 km/h 85% 0.2 mm 550 W/m2
14:29 11.9 °C 9.5 °C 1007.8 hPa WSW 6.4 km/h 12.9 km/h 85% 0.2 mm 643 W/m2
14:34 12.2 °C 9.6 °C 1007.8 hPa West 3.2 km/h 6.4 km/h 84% 0.2 mm 779 W/m2
14:39 12.3 °C 9.1 °C 1007.8 hPa WNW 16.3 km/h 16.1 km/h 81% 0.2 mm 605 W/m2
14:44 12.4 °C 9.2 °C 1007.8 hPa WSW 3.2 km/h 12.9 km/h 81% 0.2 mm 563 W/m2
14:49 12.8 °C 9.6 °C 1007.5 hPa WNW 6.4 km/h 11.3 km/h 81% 0.2 mm 1076 W/m2
14:54 12.9 °C 8.8 °C 1007.5 hPa WNW 9.7 km/h 11.3 km/h 76% 0.2 mm 223 W/m2
14:59 12.7 °C 8.6 °C 1007.5 hPa WNW 6.4 km/h 20.9 km/h 76% 0.2 mm 257 W/m2
15:04 12.7 °C 9 °C 1007.5 hPa NW 4.7 km/h 6.4 km/h 78% 0.2 mm 427 W/m2
15:09 12.8 °C 9.1 °C 1007.5 hPa West 4.7 km/h 20.9 km/h 78% 0.2 mm 905 W/m2
15:14 13.3 °C 9 °C 1007.5 hPa WSW 6.4 km/h 16.1 km/h 75% 0.0 mm 1028 W/m2
15:19 13.8 °C 9 °C 1007.5 hPa North 1.4 km/h 11.3 km/h 73% 0.0 mm 977 W/m2
15:24 14.1 °C 8.7 °C 1007.5 hPa WSW 6.4 km/h 12.9 km/h 70% 0.0 mm 902 W/m2
15:29 13.9 °C 8.3 °C 1007.1 hPa West 4.7 km/h 12.9 km/h 69% 0.0 mm 209 W/m2
15:34 14.1 °C 8.3 °C 1007.1 hPa Calm   6.4 km/h 68% 0.0 mm 605 W/m2
15:39 14.2 °C 8.4 °C 1007.1 hPa Calm   8 km/h 68% 0.0 mm 413 W/m2
15:44 14.3 °C 8.5 °C 1007.1 hPa NNW 9.7 km/h 12.9 km/h 68% 0.0 mm 624 W/m2
15:49 14.2 °C 7.9 °C 1007.1 hPa West 9.7 km/h 14.5 km/h 66% 0.0 mm 461 W/m2
15:54 14.1 °C 7.8 °C 1007.1 hPa Calm   4.8 km/h 66% 0.0 mm 406 W/m2
15:59 14.1 °C 7.8 °C 1007.1 hPa WNW 4.7 km/h 12.9 km/h 66% 0.0 mm 130 W/m2
16:04 13.8 °C 7.8 °C 1007.1 hPa WSW 4.7 km/h 11.3 km/h 67% 0.0 mm 171 W/m2
16:09 14 °C 8.2 °C 1006.8 hPa WNW 4.7 km/h 6.4 km/h 68% 0.0 mm 378 W/m2
16:14 14.1 °C 7.8 °C 1006.8 hPa Calm   6.4 km/h 66% 0.0 mm 202 W/m2
16:19 14.2 °C 7.9 °C 1006.8 hPa SW 9.7 km/h 11.3 km/h 66% 0.0 mm 174 W/m2
16:24 14.3 °C 8 °C 1006.8 hPa NW 1.4 km/h 4.8 km/h 66% 0.0 mm 591 W/m2
16:29 14.7 °C 7.3 °C 1006.4 hPa NW 3.2 km/h 9.7 km/h 61% 0.0 mm 283 W/m2
16:34 15.1 °C 7.4 °C 1006.8 hPa WNW 13 km/h 12.9 km/h 60% 0.0 mm 833 W/m2
16:39 15.4 °C 6.7 °C 1006.4 hPa West 4.7 km/h 11.3 km/h 56% 0.0 mm 721 W/m2
16:44 15.7 °C 6.7 °C 1006.4 hPa NW 6.4 km/h 12.9 km/h 55% 0.0 mm 320 W/m2
16:49 15.6 °C 6.9 °C 1006.4 hPa WNW 6.4 km/h 6.4 km/h 56% 0.0 mm 146 W/m2
16:54 15.2 °C 6.5 °C 1006.4 hPa WSW 1.4 km/h 8 km/h 56% 0.0 mm 179 W/m2
16:59 15.2 °C 6 °C 1006.4 hPa WNW 11.1 km/h 16.1 km/h 54% 0.0 mm 754 W/m2
17:04 15.2 °C 6.2 °C 1006.4 hPa WNW 6.4 km/h 20.9 km/h 55% 0.0 mm 204 W/m2
17:09 15.3 °C 6.3 °C 1006.4 hPa NW 11.1 km/h 16.1 km/h 55% 0.0 mm 568 W/m2
17:14 15.4 °C 6.1 °C 1006.4 hPa WNW 6.4 km/h 12.9 km/h 54% 0.0 mm 698 W/m2
17:19 15.4 °C 6.4 °C 1006.4 hPa WSW 3.2 km/h 14.5 km/h 55% 0.0 mm 751 W/m2
17:24 15.5 °C 6.5 °C 1006.4 hPa North 9.7 km/h 12.9 km/h 55% 0.0 mm 373 W/m2
17:29 15.2 °C 6.5 °C 1006.4 hPa WNW 7.9 km/h 11.3 km/h 56% 0.0 mm 204 W/m2
17:34 14.9 °C 6.2 °C 1006.4 hPa West 9.7 km/h 12.9 km/h 56% 0.0 mm 348 W/m2
17:39 14.9 °C 6.2 °C 1006.4 hPa West 4.7 km/h 6.4 km/h 56% 0.0 mm 178 W/m2
17:44 14.9 °C 6.5 °C 1006.4 hPa WNW 6.4 km/h 9.7 km/h 57% 0.0 mm 461 W/m2
17:49 14.9 °C 6.5 °C 1006.4 hPa West 3.2 km/h 9.7 km/h 57% 0.0 mm 251 W/m2
17:54 15.1 °C 6.6 °C 1006.4 hPa WNW 7.9 km/h 14.5 km/h 57% 0.0 mm 606 W/m2
17:59 15.2 °C 7 °C 1006.4 hPa WNW 1.4 km/h 6.4 km/h 58% 0.0 mm 214 W/m2
18:04 15.5 °C 7 °C 1006.4 hPa Calm   14.5 km/h 57% 0.0 mm 561 W/m2
18:09 15.6 °C 7.1 °C 1006.4 hPa North 1.4 km/h 9.7 km/h 57% 0.0 mm 128 W/m2
18:14 15.4 °C 6.9 °C 1006.4 hPa West 3.2 km/h 14.5 km/h 57% 0.0 mm 142 W/m2
18:19 15.1 °C 6.9 °C 1006.4 hPa West 1.4 km/h 9.7 km/h 58% 0.0 mm 171 W/m2
18:24 14.9 °C 7 °C 1006.4 hPa WNW 4.7 km/h 11.3 km/h 59% 0.0 mm 181 W/m2
18:29 14.8 °C 6.9 °C 1006.4 hPa West 3.2 km/h 9.7 km/h 59% 0.0 mm 169 W/m2
18:34 14.7 °C 7 °C 1006.4 hPa WNW 3.2 km/h 9.7 km/h 60% 0.0 mm 169 W/m2
18:39 14.8 °C 7.1 °C 1006.4 hPa West 11.1 km/h 11.3 km/h 60% 0.0 mm 160 W/m2
18:44 14.7 °C 7 °C 1006.4 hPa West 4.7 km/h 6.4 km/h 60% 0.0 mm 144 W/m2
18:49 14.7 °C 7.3 °C 1006.4 hPa West 6.4 km/h 6.4 km/h 61% 0.0 mm 128 W/m2
18:54 14.7 °C 7.3 °C 1006.4 hPa SW 1.4 km/h 9.7 km/h 61% 0.0 mm 142 W/m2
18:59 14.6 °C 6.9 °C 1006.4 hPa NNW 1.4 km/h 11.3 km/h 60% 0.0 mm 137 W/m2
19:04 14.6 °C 7.2 °C 1006.4 hPa WNW 4.7 km/h 6.4 km/h 61% 0.0 mm 135 W/m2
19:09 14.6 °C 7.2 °C 1006.4 hPa West 3.2 km/h 6.4 km/h 61% 0.0 mm 156 W/m2
19:14 14.6 °C 7.2 °C 1006.4 hPa NW 4.7 km/h 4.8 km/h 61% 0.0 mm 141 W/m2
19:19 14.6 °C 7.2 °C 1006.4 hPa NW 4.7 km/h 4.8 km/h 61% 0.0 mm 88 W/m2
19:24 14.5 °C 6.8 °C 1006.4 hPa West 3.2 km/h 8 km/h 60% 0.0 mm 70 W/m2
19:29 14.4 °C 7 °C 1006.4 hPa NW 1.4 km/h 6.4 km/h 61% 0.0 mm 74 W/m2
19:34 14.3 °C 7.1 °C 1006.4 hPa WNW 3.2 km/h 3.2 km/h 62% 0.0 mm 86 W/m2
19:39 14.2 °C 7 °C 1006.8 hPa West 3.2 km/h 6.4 km/h 62% 0.0 mm 79 W/m2
19:44 14.2 °C 7.3 °C 1006.8 hPa NW 4.7 km/h 6.4 km/h 63% 0.0 mm 72 W/m2
19:49 14.1 °C 7.4 °C 1006.8 hPa West 1.4 km/h 3.2 km/h 64% 0.0 mm 67 W/m2
19:54 14.1 °C 7.4 °C 1006.8 hPa WNW 3.2 km/h 4.8 km/h 64% 0.0 mm 63 W/m2
19:59 14.1 °C 7.6 °C 1006.4 hPa WNW 1.4 km/h 3.2 km/h 65% 0.0 mm 69 W/m2
20:04 14.1 °C 7.6 °C 1006.4 hPa WNW 1.4 km/h 4.8 km/h 65% 0.0 mm 58 W/m2
20:09 14.1 °C 7.6 °C 1006.4 hPa Calm     65% 0.0 mm 46 W/m2
20:14 14.1 °C 7.8 °C 1006.4 hPa Calm     66% 0.0 mm 40 W/m2
20:20 14 °C 8.2 °C 1006.4 hPa Calm   1.6 km/h 68% 0.0 mm 33 W/m2
20:25 13.8 °C 8.4 °C 1006.8 hPa Calm   1.6 km/h 70% 0.0 mm 28 W/m2
20:30 13.7 °C 8.3 °C 1006.8 hPa Calm   1.6 km/h 70% 0.0 mm 21 W/m2
20:35 13.4 °C 8.2 °C 1006.8 hPa WNW 1.4 km/h 1.6 km/h 71% 0.0 mm 18 W/m2
20:40 13.2 °C 7.8 °C 1006.8 hPa Calm   1.6 km/h 70% 0.0 mm 14 W/m2
20:45 12.9 °C 8 °C 1006.8 hPa WNW 1.4 km/h 1.6 km/h 72% 0.0 mm 11 W/m2
20:50 12.7 °C 7.8 °C 1006.8 hPa WNW 1.4 km/h 3.2 km/h 72% 0.0 mm 11 W/m2
20:55 12.3 °C 7.6 °C 1006.8 hPa WNW 1.4 km/h 3.2 km/h 73% 0.0 mm 9 W/m2
21:00 12.1 °C 7.6 °C 1006.8 hPa WNW 1.4 km/h 1.6 km/h 74% 0.0 mm 7 W/m2
21:05 11.8 °C 7.5 °C 1006.8 hPa WNW 1.4 km/h 1.6 km/h 75% 0.0 mm 5 W/m2
21:10 11.6 °C 7.5 °C 1006.8 hPa Calm   1.6 km/h 76% 0.0 mm 5 W/m2
21:15 11.4 °C 7.5 °C 1006.8 hPa Calm   1.6 km/h 77% 0.0 mm 0 W/m2
21:20 11.3 °C 7.4 °C 1006.8 hPa WNW 1.4 km/h 3.2 km/h 77% 0.0 mm 0 W/m2
21:25 11.1 °C 7.4 °C 1006.8 hPa WNW 1.4 km/h 1.6 km/h 78% 0.0 mm 0 W/m2
21:30 10.9 °C 7.2 °C 1007.1 hPa WNW 3.2 km/h 3.2 km/h 78% 0.0 mm 0 W/m2
21:35 10.8 °C 7.1 °C 1007.1 hPa Calm   1.6 km/h 78% 0.0 mm 0 W/m2
21:40 10.8 °C 7.3 °C 1007.1 hPa WNW 1.4 km/h 3.2 km/h 79% 0.0 mm 0 W/m2
21:45 10.7 °C 7.2 °C 1007.1 hPa WNW 1.4 km/h 1.6 km/h 79% 0.0 mm 0 W/m2
21:50 10.6 °C 7.3 °C 1007.1 hPa Calm   3.2 km/h 80% 0.0 mm 0 W/m2
21:55 10.4 °C 7.1 °C 1007.1 hPa WNW 1.4 km/h 3.2 km/h 80% 0.0 mm 0 W/m2
22:00 10.4 °C 7.3 °C 1007.1 hPa WNW 1.4 km/h 1.6 km/h 81% 0.0 mm 0 W/m2
22:05 10.4 °C 7.3 °C 1007.1 hPa WNW 3.2 km/h 4.8 km/h 81% 0.0 mm 0 W/m2
22:10 10.6 °C 7.3 °C 1007.5 hPa West 1.4 km/h 4.8 km/h 80% 0.0 mm 0 W/m2
22:15 10.8 °C 7.5 °C 1007.1 hPa West 1.4 km/h 3.2 km/h 80% 0.0 mm 0 W/m2
22:20 11.1 °C 7.6 °C 1007.5 hPa West 1.4 km/h 3.2 km/h 79% 0.0 mm 0 W/m2
22:25 11.3 °C 7.8 °C 1007.5 hPa West 4.7 km/h 4.8 km/h 79% 0.0 mm 0 W/m2
22:30 11.4 °C 7.9 °C 1007.5 hPa Calm   3.2 km/h 79% 0.0 mm 0 W/m2
22:35 11.5 °C 8 °C 1007.1 hPa Calm   6.4 km/h 79% 0.0 mm 0 W/m2
22:40 11.5 °C 8 °C 1007.1 hPa Calm     79% 0.0 mm 0 W/m2
22:45 11.5 °C 8 °C 1007.1 hPa Calm   4.8 km/h 79% 0.0 mm 0 W/m2
22:50 11.5 °C 7.8 °C 1007.1 hPa Calm     78% 0.0 mm 0 W/m2
22:55 11.4 °C 7.9 °C 1007.1 hPa Calm     79% 0.0 mm 0 W/m2
23:00 11.4 °C 7.9 °C 1007.1 hPa Calm     79% 0.0 mm 0 W/m2
23:05 11.2 °C 7.9 °C 1007.1 hPa Calm     80% 0.0 mm 0 W/m2
23:10 11.1 °C 8 °C 1007.1 hPa Calm     81% 0.0 mm 0 W/m2
23:15 10.9 °C 7.8 °C 1007.1 hPa Calm     81% 0.0 mm 0 W/m2
23:20 10.8 °C 7.9 °C 1007.1 hPa Calm   3.2 km/h 82% 0.0 mm 0 W/m2
23:25 10.7 °C 7.8 °C 1007.1 hPa NNE 3.2 km/h 3.2 km/h 82% 0.0 mm 0 W/m2
23:30 10.6 °C 7.7 °C 1007.1 hPa Calm   1.6 km/h 82% 0.0 mm 0 W/m2
23:35 10.6 °C 7.7 °C 1007.1 hPa Calm   1.6 km/h 82% 0.0 mm 0 W/m2
23:40 10.4 °C 7.6 °C 1007.1 hPa Calm   3.2 km/h 83% 0.0 mm 0 W/m2
23:45 10.3 °C 7.5 °C 1007.1 hPa Calm     83% 0.0 mm 0 W/m2
23:50 10.2 °C 7.4 °C 1007.1 hPa Calm     83% 0.0 mm 0 W/m2
23:55 9.9 °C 7.3 °C 1007.5 hPa Calm     84% 0.0 mm 0 W/m2
Juneau County Weather
Compliments of Weather Underground - 4 mb